Time;durP1;ratioP1;P1;durP2;ratioP2;P2;SDS_P1;SDS_P2;PMS_P1;PMS_P2;Temp;Humidity;BMP_temperature;BMP_pressure;BME280_temperature;BME280_humidity;BME280_pressure;Samples;Min_cycle;Max_cycle;Signal;HPM_P1;HPM_P2
2024/01/19 00:01:57;;;;;;;5.18;2.70;;;;;;;;;;5026125;28;20138;-77
2024/01/19 00:04:23;;;;;;;5.47;2.15;;;;;;;;;;5007993;28;20047;-77
2024/01/19 00:06:49;;;;;;;6.13;2.47;;;;;;;;;;5007863;28;20052;-78
2024/01/19 00:09:15;;;;;;;6.70;2.70;;;;;;;;;;5008841;28;20074;-78
2024/01/19 00:11:41;;;;;;;5.45;2.22;;;;;;;;;;5008555;28;20042;-78
2024/01/19 00:14:07;;;;;;;6.60;2.50;;;;;;;;;;5027369;28;20793;-78
2024/01/19 00:16:33;;;;;;;6.82;2.08;;;;;;;;;;5028244;28;20054;-78
2024/01/19 00:19:01;;;;;;;4.47;1.52;;;;;;;;;;5027433;28;20055;-78
2024/01/19 00:21:27;;;;;;;7.00;3.30;;;;;;;;;;5009114;28;20045;-78
2024/01/19 00:23:53;;;;;;;6.60;1.85;;;;;;;;;;5026087;28;20041;-77
2024/01/19 00:26:19;;;;;;;22.83;7.72;;;;;;;;;;5009816;28;20049;-77
2024/01/19 00:28:45;;;;;;;26.83;9.93;;;;;;;;;;5027631;28;20046;-77
2024/01/19 00:31:11;;;;;;;28.23;10.27;;;;;;;;;;4992440;28;20042;-78
2024/01/19 00:33:37;;;;;;;21.48;8.27;;;;;;;;;;5008692;28;20458;-78
2024/01/19 00:36:04;;;;;;;16.70;6.22;;;;;;;;;;5008038;28;20049;-77
2024/01/19 00:38:30;;;;;;;11.80;4.63;;;;;;;;;;5009186;28;20054;-78
2024/01/19 00:40:56;;;;;;;5.55;2.10;;;;;;;;;;4992850;28;20049;-77
2024/01/19 00:43:22;;;;;;;7.60;2.35;;;;;;;;;;5026911;28;20557;-78
2024/01/19 00:45:48;;;;;;;4.95;2.17;;;;;;;;;;5007876;28;20053;-78
2024/01/19 00:48:14;;;;;;;4.82;2.10;;;;;;;;;;5008754;28;20794;-78
2024/01/19 00:50:40;;;;;;;6.47;2.33;;;;;;;;;;4992783;28;20119;-78
2024/01/19 00:53:06;;;;;;;7.38;2.25;;;;;;;;;;5027395;28;20471;-78
2024/01/19 00:55:32;;;;;;;6.07;1.92;;;;;;;;;;5009391;28;20080;-78
2024/01/19 00:57:58;;;;;;;5.75;2.20;;;;;;;;;;4992470;28;20074;-77
2024/01/19 01:00:24;;;;;;;3.75;1.60;;;;;;;;;;5024884;28;20053;-78
2024/01/19 01:02:50;;;;;;;3.92;2.10;;;;;;;;;;5007617;28;20148;-78
2024/01/19 01:05:19;;;;;;;4.82;2.00;;;;;;;;;;5028828;28;20411;-78
2024/01/19 01:07:45;;;;;;;7.70;2.05;;;;;;;;;;5030625;28;20073;-78
2024/01/19 01:10:11;;;;;;;4.68;1.70;;;;;;;;;;5030141;28;20132;-78
2024/01/19 01:12:38;;;;;;;6.30;2.38;;;;;;;;;;5029817;28;20060;-77
2024/01/19 01:15:04;;;;;;;4.30;2.00;;;;;;;;;;5012401;28;20045;-78
2024/01/19 01:17:30;;;;;;;3.45;1.90;;;;;;;;;;5013008;28;20450;-77
2024/01/19 01:19:56;;;;;;;7.25;2.30;;;;;;;;;;5030332;28;20060;-78
2024/01/19 01:22:22;;;;;;;5.65;2.15;;;;;;;;;;5011943;28;20054;-78
2024/01/19 01:24:48;;;;;;;7.88;2.20;;;;;;;;;;5012556;28;20924;-77
2024/01/19 01:27:14;;;;;;;6.75;2.47;;;;;;;;;;5030900;28;20093;-77
2024/01/19 01:29:40;;;;;;;6.10;1.95;;;;;;;;;;5030623;28;20431;-78
2024/01/19 01:32:06;;;;;;;8.35;2.25;;;;;;;;;;5024125;28;20077;-77
2024/01/19 01:34:32;;;;;;;4.75;2.03;;;;;;;;;;5030066;28;20479;-78
2024/01/19 01:36:59;;;;;;;6.82;3.25;;;;;;;;;;5028696;28;20061;-77
2024/01/19 01:39:26;;;;;;;5.50;1.98;;;;;;;;;;5028787;28;20064;-78
2024/01/19 01:41:51;;;;;;;5.00;2.58;;;;;;;;;;5029777;28;20056;-78
2024/01/19 01:44:17;;;;;;;4.30;1.67;;;;;;;;;;5011738;28;20041;-78
2024/01/19 01:46:43;;;;;;;7.95;2.33;;;;;;;;;;5006061;28;20159;-77
2024/01/19 01:49:10;;;;;;;8.55;1.60;;;;;;;;;;5018368;28;20049;-78
2024/01/19 01:51:36;;;;;;;5.65;1.73;;;;;;;;;;5030340;28;20128;-78
2024/01/19 01:54:05;;;;;;;4.03;1.67;;;;;;;;;;5030079;28;20559;-78
2024/01/19 01:56:31;;;;;;;4.55;1.40;;;;;;;;;;5011878;28;20042;-78
2024/01/19 01:58:58;;;;;;;5.95;1.63;;;;;;;;;;5009820;28;20080;-78
2024/01/19 02:01:24;;;;;;;4.43;1.55;;;;;;;;;;5027596;28;20129;-78
2024/01/19 02:03:52;;;;;;;4.45;1.77;;;;;;;;;;5027935;28;20061;-78
2024/01/19 02:06:18;;;;;;;5.88;1.40;;;;;;;;;;5025193;28;20396;-78
2024/01/19 02:08:44;;;;;;;3.10;1.65;;;;;;;;;;5011022;28;20045;-78
2024/01/19 02:11:10;;;;;;;5.57;1.45;;;;;;;;;;4994789;28;20041;-78
2024/01/19 02:13:36;;;;;;;2.95;1.15;;;;;;;;;;5028587;28;20041;-78
2024/01/19 02:16:03;;;;;;;2.05;1.30;;;;;;;;;;5011450;28;20049;-78
2024/01/19 02:18:29;;;;;;;3.33;1.65;;;;;;;;;;5030232;28;20079;-78
2024/01/19 02:20:55;;;;;;;6.90;1.63;;;;;;;;;;5014972;28;20400;-78
2024/01/19 02:23:22;;;;;;;6.57;1.50;;;;;;;;;;5028833;28;20632;-78
2024/01/19 02:25:48;;;;;;;2.90;1.67;;;;;;;;;;5027635;28;20519;-78
2024/01/19 02:28:14;;;;;;;3.53;1.52;;;;;;;;;;5011401;28;20120;-78
2024/01/19 02:30:40;;;;;;;8.63;2.20;;;;;;;;;;5028981;28;20124;-78
2024/01/19 02:33:06;;;;;;;7.18;1.65;;;;;;;;;;5027751;28;20414;-78
2024/01/19 02:35:32;;;;;;;4.10;1.38;;;;;;;;;;5028546;28;20049;-78
2024/01/19 02:37:58;;;;;;;4.32;1.80;;;;;;;;;;5010925;28;20049;-78
2024/01/19 02:40:24;;;;;;;2.20;1.70;;;;;;;;;;5028866;28;20267;-78
2024/01/19 02:42:50;;;;;;;5.20;2.72;;;;;;;;;;5028439;28;20052;-78
2024/01/19 02:45:16;;;;;;;4.70;2.17;;;;;;;;;;5029047;28;20566;-78
2024/01/19 02:47:42;;;;;;;5.47;2.33;;;;;;;;;;5029340;28;20041;-78
2024/01/19 02:50:08;;;;;;;4.30;2.10;;;;;;;;;;5028562;28;20045;-78
2024/01/19 02:52:34;;;;;;;7.47;2.45;;;;;;;;;;5028762;28;20072;-78
2024/01/19 02:55:00;;;;;;;8.40;2.45;;;;;;;;;;5027663;28;20529;-78
2024/01/19 02:57:26;;;;;;;6.03;2.20;;;;;;;;;;5029558;28;20045;-78
2024/01/19 02:59:52;;;;;;;4.65;1.92;;;;;;;;;;5010155;28;20790;-78
2024/01/19 03:02:18;;;;;;;3.83;1.73;;;;;;;;;;5027967;28;20511;-78
2024/01/19 03:04:44;;;;;;;5.10;1.48;;;;;;;;;;5009535;28;20052;-78
2024/01/19 03:07:11;;;;;;;4.40;1.33;;;;;;;;;;5028258;28;20045;-78
2024/01/19 03:09:37;;;;;;;4.50;1.17;;;;;;;;;;5028825;28;20045;-78
2024/01/19 03:12:03;;;;;;;3.22;1.15;;;;;;;;;;4998824;28;20412;-78
2024/01/19 03:14:29;;;;;;;4.80;1.25;;;;;;;;;;4993963;28;20076;-78
2024/01/19 03:16:55;;;;;;;4.57;1.10;;;;;;;;;;4994766;28;20517;-78
2024/01/19 03:19:20;;;;;;;4.75;1.30;;;;;;;;;;5010101;28;20049;-78
2024/01/19 03:21:46;;;;;;;2.35;0.95;;;;;;;;;;5027298;28;20058;-78
2024/01/19 03:24:13;;;;;;;3.10;1.00;;;;;;;;;;5010151;28;20410;-78
2024/01/19 03:26:41;;;;;;;2.35;0.90;;;;;;;;;;5009022;28;20590;-78
2024/01/19 03:29:08;;;;;;;3.88;1.63;;;;;;;;;;5026646;28;20517;-78
2024/01/19 03:31:34;;;;;;;4.85;1.35;;;;;;;;;;5005209;28;20397;-78
2024/01/19 03:34:00;;;;;;;2.22;1.27;;;;;;;;;;4998331;28;20045;-78
2024/01/19 03:36:26;;;;;;;3.63;1.20;;;;;;;;;;5027866;28;20144;-78
2024/01/19 03:38:52;;;;;;;1.60;1.00;;;;;;;;;;5028318;28;20203;-78
2024/01/19 03:41:18;;;;;;;5.15;1.63;;;;;;;;;;5026839;28;20073;-78
2024/01/19 03:43:44;;;;;;;2.63;1.15;;;;;;;;;;5027093;28;20518;-78
2024/01/19 03:46:10;;;;;;;3.65;1.08;;;;;;;;;;4992992;28;20191;-78
2024/01/19 03:48:36;;;;;;;1.33;1.00;;;;;;;;;;5010654;28;20060;-78
2024/01/19 03:51:03;;;;;;;2.63;0.80;;;;;;;;;;5027805;28;20042;-78
2024/01/19 03:53:29;;;;;;;5.38;1.60;;;;;;;;;;5027756;28;20067;-78
2024/01/19 03:55:55;;;;;;;3.45;0.80;;;;;;;;;;4993514;28;20427;-78
2024/01/19 03:58:21;;;;;;;2.35;0.88;;;;;;;;;;5028312;28;20041;-78
2024/01/19 04:00:46;;;;;;;3.28;1.10;;;;;;;;;;5027239;28;20060;-78
2024/01/19 04:03:12;;;;;;;4.25;0.93;;;;;;;;;;5024859;28;20057;-78
2024/01/19 04:05:38;;;;;;;1.55;1.00;;;;;;;;;;5007565;28;20072;-78
2024/01/19 04:08:04;;;;;;;2.75;1.17;;;;;;;;;;5027247;28;20124;-79
2024/01/19 04:10:30;;;;;;;1.15;0.73;;;;;;;;;;5027492;28;20129;-79
2024/01/19 04:12:56;;;;;;;1.20;1.10;;;;;;;;;;5027533;28;20167;-78
2024/01/19 04:15:22;;;;;;;3.10;1.00;;;;;;;;;;5008847;28;20049;-78
2024/01/19 04:17:48;;;;;;;3.47;1.00;;;;;;;;;;5009219;28;20085;-79
2024/01/19 04:20:14;;;;;;;2.25;0.70;;;;;;;;;;4992847;28;20781;-78
2024/01/19 04:22:41;;;;;;;3.03;1.20;;;;;;;;;;5009014;28;20049;-79
2024/01/19 04:25:07;;;;;;;3.53;0.95;;;;;;;;;;5009650;28;20068;-78
2024/01/19 04:27:33;;;;;;;3.33;0.95;;;;;;;;;;5009717;28;20101;-78
2024/01/19 04:29:59;;;;;;;2.47;0.70;;;;;;;;;;4992425;28;20511;-79
2024/01/19 04:32:25;;;;;;;2.08;0.80;;;;;;;;;;5026180;28;20048;-78
2024/01/19 04:34:51;;;;;;;3.95;0.90;;;;;;;;;;5026991;28;20092;-78
2024/01/19 04:37:16;;;;;;;2.33;0.88;;;;;;;;;;4993346;28;20052;-78
2024/01/19 04:39:42;;;;;;;2.95;1.05;;;;;;;;;;5030071;28;20049;-78
2024/01/19 04:42:08;;;;;;;2.22;1.17;;;;;;;;;;5013800;28;20057;-78
2024/01/19 04:44:34;;;;;;;4.65;0.90;;;;;;;;;;5030821;28;20099;-78
2024/01/19 04:47:00;;;;;;;2.28;0.88;;;;;;;;;;4996934;28;20484;-78
2024/01/19 04:49:26;;;;;;;3.78;1.10;;;;;;;;;;5013823;28;20057;-79
2024/01/19 04:51:52;;;;;;;1.98;1.02;;;;;;;;;;5029927;28;20064;-78
2024/01/19 04:54:18;;;;;;;2.22;0.77;;;;;;;;;;5031239;28;20042;-78
2024/01/19 04:56:44;;;;;;;4.65;0.88;;;;;;;;;;5031101;28;20042;-79
2024/01/19 04:59:10;;;;;;;3.00;0.90;;;;;;;;;;5028927;28;20091;-78
2024/01/19 05:01:36;;;;;;;2.42;0.80;;;;;;;;;;5012805;28;20049;-78
2024/01/19 05:04:02;;;;;;;2.20;0.65;;;;;;;;;;5030660;28;20057;-79
2024/01/19 05:06:28;;;;;;;2.97;1.02;;;;;;;;;;5029810;28;20048;-79
2024/01/19 05:08:54;;;;;;;4.80;0.65;;;;;;;;;;5009743;28;20067;-78
2024/01/19 05:11:20;;;;;;;2.08;0.73;;;;;;;;;;5031001;28;20053;-78
2024/01/19 05:13:46;;;;;;;2.13;0.82;;;;;;;;;;5030604;28;20041;-79
2024/01/19 05:16:12;;;;;;;4.18;1.10;;;;;;;;;;5027940;28;20041;-79
2024/01/19 05:18:39;;;;;;;1.58;0.68;;;;;;;;;;5024840;28;20041;-79
2024/01/19 05:21:06;;;;;;;3.97;1.17;;;;;;;;;;5030281;28;20049;-78
2024/01/19 05:23:32;;;;;;;4.10;1.08;;;;;;;;;;5030066;28;20053;-79
2024/01/19 05:25:58;;;;;;;1.83;0.65;;;;;;;;;;5030064;28;20046;-78
2024/01/19 05:28:24;;;;;;;1.30;0.90;;;;;;;;;;5030033;28;20041;-78
2024/01/19 05:30:50;;;;;;;1.40;0.80;;;;;;;;;;5012092;28;20041;-78
2024/01/19 05:33:16;;;;;;;3.33;1.02;;;;;;;;;;5028451;28;20048;-78
2024/01/19 05:35:42;;;;;;;3.08;0.90;;;;;;;;;;4996884;28;20046;-79
2024/01/19 05:38:08;;;;;;;2.45;0.98;;;;;;;;;;5029814;28;20470;-79
2024/01/19 05:40:34;;;;;;;2.97;1.20;;;;;;;;;;5012976;28;20049;-78
2024/01/19 05:43:00;;;;;;;2.22;1.08;;;;;;;;;;5009833;28;20454;-79
2024/01/19 05:45:26;;;;;;;5.25;1.48;;;;;;;;;;5028217;28;20049;-78
2024/01/19 05:47:52;;;;;;;4.22;1.00;;;;;;;;;;5027983;28;20522;-78
2024/01/19 05:50:18;;;;;;;5.93;1.17;;;;;;;;;;5028376;28;20037;-78
2024/01/19 05:52:45;;;;;;;7.88;1.75;;;;;;;;;;5011915;28;20060;-79
2024/01/19 05:55:11;;;;;;;4.30;1.23;;;;;;;;;;4996440;28;20111;-78
2024/01/19 05:57:37;;;;;;;2.83;1.30;;;;;;;;;;5011962;28;20131;-79
2024/01/19 06:00:03;;;;;;;1.63;0.70;;;;;;;;;;5029417;28;20049;-79
2024/01/19 06:02:29;;;;;;;5.07;1.20;;;;;;;;;;5027725;28;20056;-79
2024/01/19 06:04:55;;;;;;;5.80;1.48;;;;;;;;;;5030010;28;20042;-78
2024/01/19 06:07:23;;;;;;;7.57;1.48;;;;;;;;;;5029117;28;20463;-78
2024/01/19 06:09:49;;;;;;;2.65;1.10;;;;;;;;;;5012159;28;20046;-79
2024/01/19 06:12:16;;;;;;;3.13;1.10;;;;;;;;;;5029453;28;20079;-79
2024/01/19 06:14:42;;;;;;;3.03;1.33;;;;;;;;;;5012135;28;20641;-78
2024/01/19 06:17:11;;;;;;;6.95;1.23;;;;;;;;;;5027498;28;20037;-78
2024/01/19 06:19:38;;;;;;;7.78;1.42;;;;;;;;;;5027205;28;20080;-78
2024/01/19 06:22:04;;;;;;;3.42;1.05;;;;;;;;;;4994264;28;20080;-78
2024/01/19 06:24:34;;;;;;;6.78;1.67;;;;;;;;;;5028549;28;20045;-78
2024/01/19 06:27:00;;;;;;;9.45;1.30;;;;;;;;;;5029339;28;20072;-79
2024/01/19 06:29:27;;;;;;;3.30;1.38;;;;;;;;;;5011152;28;20479;-78
2024/01/19 06:31:53;;;;;;;6.57;1.52;;;;;;;;;;5029272;28;20057;-78
2024/01/19 06:34:19;;;;;;;4.70;1.00;;;;;;;;;;5010519;28;20119;-78
2024/01/19 06:36:45;;;;;;;4.00;1.17;;;;;;;;;;5025474;28;20132;-78
2024/01/19 06:39:12;;;;;;;10.02;1.42;;;;;;;;;;5027320;28;20095;-78
2024/01/19 06:41:44;;;;;;;3.63;1.20;;;;;;;;;;4995275;28;20514;-78
2024/01/19 06:44:11;;;;;;;4.95;1.45;;;;;;;;;;5011621;28;20057;-79
2024/01/19 06:46:37;;;;;;;8.30;1.30;;;;;;;;;;5028612;28;20041;-79
2024/01/19 06:49:03;;;;;;;3.70;1.10;;;;;;;;;;5010067;28;20538;-78
2024/01/19 06:51:30;;;;;;;5.97;1.23;;;;;;;;;;5029776;28;20734;-78
2024/01/19 06:53:56;;;;;;;4.53;1.27;;;;;;;;;;5010251;28;20050;-78
2024/01/19 06:56:22;;;;;;;4.82;0.90;;;;;;;;;;5006348;28;20216;-78
2024/01/19 06:58:48;;;;;;;6.95;1.25;;;;;;;;;;5028304;28;20045;-79
2024/01/19 07:01:14;;;;;;;4.78;1.17;;;;;;;;;;5010448;28;20763;-79
2024/01/19 07:03:40;;;;;;;7.35;1.40;;;;;;;;;;5009297;28;20059;-79
2024/01/19 07:06:06;;;;;;;6.18;1.20;;;;;;;;;;5028927;28;20132;-79
2024/01/19 07:08:32;;;;;;;8.57;1.35;;;;;;;;;;5028158;28;20387;-78
2024/01/19 07:10:58;;;;;;;5.07;1.30;;;;;;;;;;5028618;28;20484;-79
2024/01/19 07:13:24;;;;;;;5.38;1.40;;;;;;;;;;5010780;28;20080;-79
2024/01/19 07:15:50;;;;;;;7.90;1.15;;;;;;;;;;5010190;28;20084;-78
2024/01/19 07:18:16;;;;;;;3.67;0.98;;;;;;;;;;5029148;28;20099;-79
2024/01/19 07:20:43;;;;;;;6.90;1.23;;;;;;;;;;5032312;28;20087;-79
2024/01/19 07:23:09;;;;;;;7.70;1.42;;;;;;;;;;5031491;28;20080;-79
2024/01/19 07:25:35;;;;;;;4.50;1.20;;;;;;;;;;5027682;28;20038;-79
2024/01/19 07:28:01;;;;;;;3.08;0.90;;;;;;;;;;5029211;28;20072;-79
2024/01/19 07:30:27;;;;;;;3.30;1.00;;;;;;;;;;5028964;28;20033;-78
2024/01/19 07:32:53;;;;;;;2.75;1.33;;;;;;;;;;5027282;28;20507;-79
2024/01/19 07:35:19;;;;;;;8.95;3.67;;;;;;;;;;5010167;28;20067;-78
2024/01/19 07:37:45;;;;;;;9.63;3.72;;;;;;;;;;5030030;28;20180;-76
2024/01/19 07:40:12;;;;;;;10.00;5.60;;;;;;;;;;5028550;28;20064;-77
2024/01/19 07:42:38;;;;;;;8.40;4.20;;;;;;;;;;5010604;28;20519;-78
2024/01/19 07:45:04;;;;;;;8.77;4.38;;;;;;;;;;5028316;28;20172;-78
2024/01/19 07:47:32;;;;;;;13.82;3.88;;;;;;;;;;5028434;28;20053;-77
2024/01/19 07:49:58;;;;;;;3.75;1.50;;;;;;;;;;5028872;28;20053;-77
2024/01/19 07:52:24;;;;;;;4.75;1.80;;;;;;;;;;5007286;28;20049;-77
2024/01/19 07:54:50;;;;;;;3.40;1.42;;;;;;;;;;5028620;28;20046;-77
2024/01/19 07:57:16;;;;;;;4.95;1.33;;;;;;;;;;5010298;28;20548;-77
2024/01/19 07:59:43;;;;;;;5.15;1.33;;;;;;;;;;5027878;28;20045;-77
2024/01/19 08:02:10;;;;;;;3.67;1.30;;;;;;;;;;5027924;28;20061;-77
2024/01/19 08:04:38;;;;;;;7.53;2.00;;;;;;;;;;5009948;28;20053;-77
2024/01/19 08:07:04;;;;;;;13.95;6.28;;;;;;;;;;5009842;28;20068;-77
2024/01/19 08:09:30;;;;;;;10.65;5.28;;;;;;;;;;5009180;28;20049;-77
2024/01/19 08:11:56;;;;;;;10.77;5.10;;;;;;;;;;5027496;28;20521;-77
2024/01/19 08:14:22;;;;;;;5.40;1.77;;;;;;;;;;5027660;28;20122;-78
2024/01/19 08:16:48;;;;;;;3.22;1.80;;;;;;;;;;5008709;28;20045;-77
2024/01/19 08:19:14;;;;;;;3.85;1.42;;;;;;;;;;5027332;28;20049;-77
2024/01/19 08:21:43;;;;;;;3.58;2.05;;;;;;;;;;5027918;28;20042;-77
2024/01/19 08:24:12;;;;;;;5.97;2.47;;;;;;;;;;5027167;28;20443;-77
2024/01/19 08:26:38;;;;;;;3.53;1.67;;;;;;;;;;5028230;28;20045;-78
2024/01/19 08:29:04;;;;;;;4.18;1.20;;;;;;;;;;5009628;28;20054;-78
2024/01/19 08:31:32;;;;;;;5.22;1.85;;;;;;;;;;5027971;28;20103;-79
2024/01/19 08:33:59;;;;;;;5.03;1.52;;;;;;;;;;5010050;28;20045;-78
2024/01/19 08:36:24;;;;;;;2.90;1.40;;;;;;;;;;5027952;28;20057;-79
2024/01/19 08:38:53;;;;;;;4.18;1.33;;;;;;;;;;5026758;28;20041;-77
2024/01/19 08:41:20;;;;;;;8.82;1.90;;;;;;;;;;5027610;28;20115;-77
2024/01/19 08:43:46;;;;;;;5.57;1.70;;;;;;;;;;4993347;28;20048;-78
2024/01/19 08:46:12;;;;;;;4.88;2.05;;;;;;;;;;5027906;28;20049;-78
2024/01/19 08:48:39;;;;;;;9.73;1.90;;;;;;;;;;5009876;28;20050;-78
2024/01/19 08:51:05;;;;;;;4.85;2.17;;;;;;;;;;5027343;28;20056;-78
2024/01/19 08:53:31;;;;;;;9.05;2.03;;;;;;;;;;5037681;28;20041;-78
2024/01/19 08:55:57;;;;;;;5.97;1.70;;;;;;;;;;5013483;28;20148;-78
2024/01/19 08:58:23;;;;;;;5.15;2.42;;;;;;;;;;5047695;28;20052;-79
2024/01/19 09:00:49;;;;;;;4.47;1.52;;;;;;;;;;5044875;28;20045;-78
2024/01/19 09:03:16;;;;;;;5.18;1.83;;;;;;;;;;4994547;28;20064;-79
2024/01/19 09:05:42;;;;;;;3.28;1.20;;;;;;;;;;5047229;28;20474;-80
2024/01/19 09:08:08;;;;;;;2.53;1.35;;;;;;;;;;5012606;28;20120;-79
2024/01/19 09:10:34;;;;;;;5.63;1.95;;;;;;;;;;5047411;28;20047;-80
2024/01/19 09:13:00;;;;;;;8.55;2.05;;;;;;;;;;5029065;28;20055;-79
2024/01/19 09:15:26;;;;;;;7.85;1.90;;;;;;;;;;5047555;28;20052;-80
2024/01/19 09:17:52;;;;;;;7.20;2.17;;;;;;;;;;5045783;28;20415;-79
2024/01/19 09:20:18;;;;;;;10.02;2.33;;;;;;;;;;5041188;28;20073;-83
2024/01/19 09:22:44;;;;;;;7.82;2.35;;;;;;;;;;5008590;28;20045;-81
2024/01/19 09:25:11;;;;;;;7.75;3.08;;;;;;;;;;4993802;28;20384;-80
2024/01/19 09:27:37;;;;;;;5.25;1.60;;;;;;;;;;5028887;28;20510;-80
2024/01/19 09:30:03;;;;;;;7.10;1.65;;;;;;;;;;5001313;28;20045;-81
2024/01/19 09:32:29;;;;;;;3.63;1.75;;;;;;;;;;5012810;28;20483;-81
2024/01/19 09:34:56;;;;;;;7.60;2.10;;;;;;;;;;5002551;28;20056;-79
2024/01/19 09:37:25;;;;;;;5.20;1.90;;;;;;;;;;5013459;28;20073;-79
2024/01/19 09:39:54;;;;;;;6.45;2.30;;;;;;;;;;5028443;28;20156;-81
2024/01/19 09:42:20;;;;;;;5.75;2.03;;;;;;;;;;5000924;28;20064;-80
2024/01/19 09:44:51;;;;;;;6.70;2.53;;;;;;;;;;4996236;28;20041;-81
2024/01/19 09:47:19;;;;;;;5.55;2.10;;;;;;;;;;4995718;28;20041;-81
2024/01/19 09:49:57;;;;;;;5.78;2.53;;;;;;;;;;5009158;28;20050;-81
2024/01/19 09:52:39;;;;;;;7.88;2.47;;;;;;;;;;5012545;28;20057;-79
2024/01/19 09:55:05;;;;;;;9.85;2.75;;;;;;;;;;4995246;28;20072;-78
2024/01/19 09:57:32;;;;;;;5.97;2.45;;;;;;;;;;5010384;28;20602;-78
2024/01/19 09:59:58;;;;;;;6.65;3.00;;;;;;;;;;5029016;28;20609;-78
2024/01/19 10:02:27;;;;;;;9.23;2.95;;;;;;;;;;5004056;28;20141;-78
2024/01/19 10:04:53;;;;;;;6.20;3.15;;;;;;;;;;4990679;28;20081;-79
2024/01/19 10:07:20;;;;;;;4.63;2.67;;;;;;;;;;4990395;28;20046;-79
2024/01/19 10:09:51;;;;;;;9.07;2.65;;;;;;;;;;4990036;28;20057;-78
2024/01/19 10:12:19;;;;;;;6.55;2.67;;;;;;;;;;4990932;28;20062;-79
2024/01/19 10:14:45;;;;;;;14.23;3.40;;;;;;;;;;4991157;28;20052;-79
2024/01/19 10:17:11;;;;;;;6.65;2.85;;;;;;;;;;4988388;28;20042;-78
2024/01/19 10:19:38;;;;;;;4.93;3.20;;;;;;;;;;4987975;28;20043;-78
2024/01/19 10:22:25;;;;;;;8.63;3.53;;;;;;;;;;4988508;28;20074;-78
2024/01/19 10:25:00;;;;;;;6.32;3.83;;;;;;;;;;4988722;28;20471;-78
2024/01/19 10:27:46;;;;;;;7.43;3.95;;;;;;;;;;4987407;28;20049;-78
2024/01/19 10:30:14;;;;;;;7.03;3.63;;;;;;;;;;5007627;28;20119;-78
2024/01/19 10:32:46;;;;;;;7.35;3.15;;;;;;;;;;4992122;28;20050;-80
2024/01/19 10:35:13;;;;;;;8.23;3.33;;;;;;;;;;5009886;28;20124;-80
2024/01/19 10:37:39;;;;;;;8.93;3.40;;;;;;;;;;5007693;28;20060;-80
2024/01/19 10:40:22;;;;;;;7.20;3.58;;;;;;;;;;5009776;28;20080;-80
2024/01/19 10:42:50;;;;;;;8.73;3.53;;;;;;;;;;4993932;28;20095;-80
2024/01/19 10:45:17;;;;;;;6.05;3.08;;;;;;;;;;5008676;28;20738;-80
2024/01/19 10:47:44;;;;;;;5.65;3.10;;;;;;;;;;5008494;28;20038;-80
2024/01/19 10:50:14;;;;;;;14.38;4.43;;;;;;;;;;5010091;28;20411;-79
2024/01/19 10:52:40;;;;;;;8.00;3.17;;;;;;;;;;5009617;28;20058;-79
2024/01/19 10:55:06;;;;;;;7.47;3.35;;;;;;;;;;5010138;28;20840;-79
2024/01/19 10:57:32;;;;;;;10.30;3.35;;;;;;;;;;5008490;28;20151;-79
2024/01/19 10:59:58;;;;;;;5.00;3.28;;;;;;;;;;5001399;28;20042;-79
2024/01/19 11:02:25;;;;;;;6.45;3.53;;;;;;;;;;4988927;28;20398;-79
2024/01/19 11:04:54;;;;;;;9.25;3.50;;;;;;;;;;4988428;28;20093;-79
2024/01/19 11:07:20;;;;;;;7.18;3.08;;;;;;;;;;4995247;28;20193;-79
2024/01/19 11:09:46;;;;;;;6.63;2.92;;;;;;;;;;4992209;28;20054;-80
2024/01/19 11:12:15;;;;;;;9.68;3.88;;;;;;;;;;4986975;28;20082;-79
2024/01/19 11:14:44;;;;;;;7.22;2.70;;;;;;;;;;4992429;28;20060;-80
2024/01/19 11:17:11;;;;;;;6.30;2.90;;;;;;;;;;4993857;28;20574;-81
2024/01/19 11:19:37;;;;;;;8.55;3.53;;;;;;;;;;5005960;28;20563;-81
2024/01/19 11:22:03;;;;;;;6.45;2.75;;;;;;;;;;4987812;28;20088;-80
2024/01/19 11:24:33;;;;;;;6.13;2.85;;;;;;;;;;4987244;28;20477;-80
2024/01/19 11:27:05;;;;;;;5.85;2.67;;;;;;;;;;4987162;28;20077;-80
2024/01/19 11:29:36;;;;;;;9.82;2.72;;;;;;;;;;4984577;28;20046;-80
2024/01/19 11:32:02;;;;;;;7.85;3.05;;;;;;;;;;4987033;28;20408;-79
2024/01/19 11:34:34;;;;;;;8.43;3.30;;;;;;;;;;4971640;28;20184;-78
2024/01/19 11:37:01;;;;;;;5.50;3.00;;;;;;;;;;4988548;28;20046;-77
2024/01/19 11:39:40;;;;;;;6.38;3.38;;;;;;;;;;4989110;28;20050;-78
2024/01/19 11:42:07;;;;;;;6.82;2.60;;;;;;;;;;4970274;28;20515;-78
2024/01/19 11:44:41;;;;;;;7.85;3.20;;;;;;;;;;4995348;28;20127;-78
2024/01/19 11:47:07;;;;;;;7.15;2.88;;;;;;;;;;4970120;28;20768;-78
2024/01/19 11:49:35;;;;;;;7.93;2.63;;;;;;;;;;4987394;28;20054;-77
2024/01/19 11:52:02;;;;;;;7.50;3.20;;;;;;;;;;4970635;28;20109;-78
2024/01/19 11:54:32;;;;;;;4.82;2.65;;;;;;;;;;4987673;28;20073;-78
2024/01/19 11:57:16;;;;;;;6.13;3.20;;;;;;;;;;4987545;28;20093;-79
2024/01/19 11:59:43;;;;;;;10.27;3.13;;;;;;;;;;4991621;28;20069;-79
2024/01/19 12:02:09;;;;;;;9.35;2.50;;;;;;;;;;4993019;28;20049;-79
2024/01/19 12:04:37;;;;;;;6.28;2.75;;;;;;;;;;5009878;28;20164;-79
2024/01/19 12:07:03;;;;;;;7.85;2.42;;;;;;;;;;5027814;28;20053;-79
2024/01/19 12:09:29;;;;;;;6.68;2.78;;;;;;;;;;5028453;28;20072;-80
2024/01/19 12:11:59;;;;;;;6.78;2.30;;;;;;;;;;5009075;28;20053;-80
2024/01/19 12:14:25;;;;;;;3.65;2.33;;;;;;;;;;5047602;28;20909;-79
2024/01/19 12:16:51;;;;;;;4.03;2.55;;;;;;;;;;5042811;28;20048;-80
2024/01/19 12:19:17;;;;;;;6.22;2.67;;;;;;;;;;5026654;28;20041;-80
2024/01/19 12:21:43;;;;;;;9.85;2.58;;;;;;;;;;5027516;28;20053;-81
2024/01/19 12:24:09;;;;;;;6.78;2.70;;;;;;;;;;5005820;28;20467;-80
2024/01/19 12:26:36;;;;;;;7.53;2.95;;;;;;;;;;5027410;28;20045;-80
2024/01/19 12:29:04;;;;;;;9.75;3.05;;;;;;;;;;5008709;28;20569;-79
2024/01/19 12:31:33;;;;;;;9.68;2.83;;;;;;;;;;5008508;28;20698;-79
2024/01/19 12:34:10;;;;;;;7.53;2.25;;;;;;;;;;5008147;28;20084;-80
2024/01/19 12:36:36;;;;;;;6.38;2.17;;;;;;;;;;5008312;28;20518;-80
2024/01/19 12:39:10;;;;;;;9.50;2.58;;;;;;;;;;5024432;28;20042;-79
2024/01/19 12:41:36;;;;;;;6.90;2.38;;;;;;;;;;5025637;28;20152;-79
2024/01/19 12:44:03;;;;;;;7.30;2.33;;;;;;;;;;5047151;28;20049;-80
2024/01/19 12:46:29;;;;;;;8.00;2.35;;;;;;;;;;5028178;28;20132;-80
2024/01/19 12:48:59;;;;;;;10.93;2.25;;;;;;;;;;5045441;28;20175;-80
2024/01/19 12:51:25;;;;;;;8.02;2.58;;;;;;;;;;5046639;28;20402;-81
2024/01/19 12:53:55;;;;;;;7.95;2.15;;;;;;;;;;5042477;28;20487;-79
2024/01/19 12:56:28;;;;;;;5.72;2.17;;;;;;;;;;5017295;28;20124;-79
2024/01/19 12:59:14;;;;;;;6.88;2.60;;;;;;;;;;5025264;28;20085;-77
2024/01/19 13:01:47;;;;;;;12.20;2.40;;;;;;;;;;5031151;28;20046;-77
2024/01/19 13:04:15;;;;;;;10.63;2.38;;;;;;;;;;5031569;28;20136;-77
2024/01/19 13:06:42;;;;;;;5.45;2.65;;;;;;;;;;5013808;28;20491;-77
2024/01/19 13:09:14;;;;;;;5.80;2.63;;;;;;;;;;5012996;28;20556;-77
2024/01/19 13:11:40;;;;;;;3.63;2.10;;;;;;;;;;5049758;28;20060;-77
2024/01/19 13:14:06;;;;;;;6.88;2.60;;;;;;;;;;5020488;28;20042;-77
2024/01/19 13:16:33;;;;;;;10.63;2.47;;;;;;;;;;5011669;28;20095;-77
2024/01/19 13:19:00;;;;;;;6.50;2.33;;;;;;;;;;5011446;28;20061;-77
2024/01/19 13:21:26;;;;;;;4.47;1.75;;;;;;;;;;4993752;28;20080;-77
2024/01/19 13:23:52;;;;;;;10.45;2.28;;;;;;;;;;5013580;28;20112;-77
2024/01/19 13:26:18;;;;;;;9.20;2.83;;;;;;;;;;5013071;28;20510;-78
2024/01/19 13:28:45;;;;;;;13.85;4.60;;;;;;;;;;5013440;28;20443;-78
2024/01/19 13:31:11;;;;;;;7.68;2.90;;;;;;;;;;4996488;28;20052;-78
2024/01/19 13:33:41;;;;;;;5.05;1.73;;;;;;;;;;5030898;28;20077;-78
2024/01/19 13:36:07;;;;;;;8.23;2.15;;;;;;;;;;5030408;28;20132;-80
2024/01/19 13:38:34;;;;;;;7.95;3.03;;;;;;;;;;5031230;28;20129;-80
2024/01/19 13:41:00;;;;;;;5.60;2.33;;;;;;;;;;5030584;28;20510;-79
2024/01/19 13:43:26;;;;;;;17.42;3.25;;;;;;;;;;5029979;28;20591;-78
2024/01/19 13:45:52;;;;;;;5.60;2.13;;;;;;;;;;5030914;28;20049;-77
2024/01/19 13:48:18;;;;;;;5.05;1.88;;;;;;;;;;5011970;28;20128;-78
2024/01/19 13:50:45;;;;;;;7.75;2.85;;;;;;;;;;5030552;28;20120;-79
2024/01/19 13:53:11;;;;;;;6.57;2.05;;;;;;;;;;5012343;28;20045;-78
2024/01/19 13:55:37;;;;;;;3.97;1.52;;;;;;;;;;5030903;28;20045;-78
2024/01/19 13:58:03;;;;;;;6.47;1.70;;;;;;;;;;5030260;28;20060;-79
2024/01/19 14:00:29;;;;;;;6.80;1.95;;;;;;;;;;5030705;28;20095;-78
2024/01/19 14:02:57;;;;;;;8.73;1.60;;;;;;;;;;5030429;28;20045;-78
2024/01/19 14:05:23;;;;;;;5.47;1.60;;;;;;;;;;5030504;28;20442;-78
2024/01/19 14:07:49;;;;;;;8.45;1.55;;;;;;;;;;5010206;28;20064;-78
2024/01/19 14:10:15;;;;;;;6.10;1.70;;;;;;;;;;5030260;28;20846;-78
2024/01/19 14:12:42;;;;;;;5.40;1.38;;;;;;;;;;5011236;28;20049;-78
2024/01/19 14:15:09;;;;;;;3.80;1.48;;;;;;;;;;5014843;28;20124;-78
2024/01/19 14:17:35;;;;;;;8.38;1.80;;;;;;;;;;5028163;28;20045;-79
2024/01/19 14:20:01;;;;;;;9.63;1.90;;;;;;;;;;5032318;28;20045;-78
2024/01/19 14:22:27;;;;;;;4.85;1.65;;;;;;;;;;5031827;28;20037;-78
2024/01/19 14:24:54;;;;;;;9.23;2.05;;;;;;;;;;5050177;28;20083;-78
2024/01/19 14:27:20;;;;;;;9.90;1.85;;;;;;;;;;5029274;28;20057;-77
2024/01/19 14:29:48;;;;;;;5.82;1.90;;;;;;;;;;5003554;28;20055;-77
2024/01/19 14:32:15;;;;;;;8.35;2.58;;;;;;;;;;5032079;28;20140;-78
2024/01/19 14:34:42;;;;;;;10.80;2.78;;;;;;;;;;5049599;28;20109;-79
2024/01/19 14:37:10;;;;;;;9.30;3.08;;;;;;;;;;5049190;28;20052;-79
2024/01/19 14:39:41;;;;;;;10.17;3.10;;;;;;;;;;5031722;28;20883;-78
2024/01/19 14:42:08;;;;;;;8.90;3.60;;;;;;;;;;5045817;28;20719;-79